sensor_id;sensor_type;location;lat;lon;timestamp;pressure;altitude;pressure_sealevel;temperature;humidity
79075;BME280;68476;42.710;23.388;2024-02-21T00:00:39;96280.72;;;3.74;100.00
79075;BME280;68476;42.710;23.388;2024-02-21T00:03:05;96283.25;;;3.75;100.00
79075;BME280;68476;42.710;23.388;2024-02-21T00:05:31;96286.09;;;3.74;100.00
79075;BME280;68476;42.710;23.388;2024-02-21T00:07:59;96279.03;;;3.73;100.00
79075;BME280;68476;42.710;23.388;2024-02-21T00:10:24;96275.81;;;3.69;100.00
79075;BME280;68476;42.710;23.388;2024-02-21T00:12:51;96271.13;;;3.71;100.00
79075;BME280;68476;42.710;23.388;2024-02-21T00:15:16;96279.19;;;3.71;100.00
79075;BME280;68476;42.710;23.388;2024-02-21T00:17:43;96281.22;;;3.69;100.00
79075;BME280;68476;42.710;23.388;2024-02-21T00:20:09;96276.00;;;3.67;100.00
79075;BME280;68476;42.710;23.388;2024-02-21T00:22:35;96267.91;;;3.67;100.00
79075;BME280;68476;42.710;23.388;2024-02-21T00:25:01;96272.81;;;3.64;100.00
79075;BME280;68476;42.710;23.388;2024-02-21T00:27:27;96271.28;;;3.61;100.00
79075;BME280;68476;42.710;23.388;2024-02-21T00:29:52;96267.75;;;3.61;100.00
79075;BME280;68476;42.710;23.388;2024-02-21T00:32:18;96269.59;;;3.60;100.00
79075;BME280;68476;42.710;23.388;2024-02-21T00:34:43;96269.09;;;3.57;100.00
79075;BME280;68476;42.710;23.388;2024-02-21T00:37:09;96272.63;;;3.57;100.00
79075;BME280;68476;42.710;23.388;2024-02-21T00:39:34;96264.56;;;3.57;100.00
79075;BME280;68476;42.710;23.388;2024-02-21T00:42:01;96265.38;;;3.58;100.00
79075;BME280;68476;42.710;23.388;2024-02-21T00:44:26;96267.38;;;3.55;100.00
79075;BME280;68476;42.710;23.388;2024-02-21T00:46:52;96260.31;;;3.54;100.00
79075;BME280;68476;42.710;23.388;2024-02-21T00:49:18;96264.69;;;3.55;100.00
79075;BME280;68476;42.710;23.388;2024-02-21T00:51:43;96264.56;;;3.57;100.00
79075;BME280;68476;42.710;23.388;2024-02-21T00:54:09;96261.50;;;3.60;100.00
79075;BME280;68476;42.710;23.388;2024-02-21T00:56:34;96264.03;;;3.62;100.00
79075;BME280;68476;42.710;23.388;2024-02-21T00:59:00;96261.69;;;3.59;100.00
79075;BME280;68476;42.710;23.388;2024-02-21T01:01:25;96252.59;;;3.60;100.00
79075;BME280;68476;42.710;23.388;2024-02-21T01:03:51;96255.09;;;3.61;100.00
79075;BME280;68476;42.710;23.388;2024-02-21T01:06:19;96254.28;;;3.61;100.00
79075;BME280;68476;42.710;23.388;2024-02-21T01:08:46;96248.03;;;3.60;100.00
79075;BME280;68476;42.710;23.388;2024-02-21T01:11:13;96245.31;;;3.60;100.00
79075;BME280;68476;42.710;23.388;2024-02-21T01:13:39;96242.63;;;3.60;100.00
79075;BME280;68476;42.710;23.388;2024-02-21T01:16:04;96239.09;;;3.60;100.00
79075;BME280;68476;42.710;23.388;2024-02-21T01:18:32;96237.09;;;3.62;100.00
79075;BME280;68476;42.710;23.388;2024-02-21T01:20:57;96236.09;;;3.63;100.00
79075;BME280;68476;42.710;23.388;2024-02-21T01:23:23;96242.63;;;3.60;100.00
79075;BME280;68476;42.710;23.388;2024-02-21T01:25:48;96234.72;;;3.59;100.00
79075;BME280;68476;42.710;23.388;2024-02-21T01:28:14;96238.75;;;3.54;100.00
79075;BME280;68476;42.710;23.388;2024-02-21T01:30:40;96231.69;;;3.53;100.00
79075;BME280;68476;42.710;23.388;2024-02-21T01:33:05;96224.63;;;3.52;100.00
79075;BME280;68476;42.710;23.388;2024-02-21T01:35:31;96223.59;;;3.45;100.00
79075;BME280;68476;42.710;23.388;2024-02-21T01:37:56;96220.91;;;3.45;100.00
79075;BME280;68476;42.710;23.388;2024-02-21T01:40:22;96224.97;;;3.49;100.00
79075;BME280;68476;42.710;23.388;2024-02-21T01:42:47;96212.81;;;3.45;100.00
79075;BME280;68476;42.710;23.388;2024-02-21T01:45:14;96220.75;;;3.47;100.00
79075;BME280;68476;42.710;23.388;2024-02-21T01:47:39;96208.78;;;3.49;100.00
79075;BME280;68476;42.710;23.388;2024-02-21T01:50:06;96216.38;;;3.54;100.00
79075;BME280;68476;42.710;23.388;2024-02-21T01:52:33;96210.97;;;3.54;100.00
79075;BME280;68476;42.710;23.388;2024-02-21T01:55:00;96213.50;;;3.55;100.00
79075;BME280;68476;42.710;23.388;2024-02-21T01:57:26;96218.06;;;3.55;100.00
79075;BME280;68476;42.710;23.388;2024-02-21T01:59:52;96208.94;;;3.48;100.00
79075;BME280;68476;42.710;23.388;2024-02-21T02:02:17;96210.81;;;3.47;100.00
79075;BME280;68476;42.710;23.388;2024-02-21T02:04:44;96211.13;;;3.44;100.00
79075;BME280;68476;42.710;23.388;2024-02-21T02:07:10;96211.81;;;3.46;100.00
79075;BME280;68476;42.710;23.388;2024-02-21T02:09:36;96222.94;;;3.51;100.00
79075;BME280;68476;42.710;23.388;2024-02-21T02:12:01;96225.97;;;3.57;100.00
79075;BME280;68476;42.710;23.388;2024-02-21T02:14:27;96223.25;;;3.65;100.00
79075;BME280;68476;42.710;23.388;2024-02-21T02:16:52;96215.50;;;3.70;100.00
79075;BME280;68476;42.710;23.388;2024-02-21T02:19:18;96213.50;;;3.72;100.00
79075;BME280;68476;42.710;23.388;2024-02-21T02:21:49;96215.19;;;3.73;100.00
79075;BME280;68476;42.710;23.388;2024-02-21T02:24:23;96204.41;;;3.73;100.00
79075;BME280;68476;42.710;23.388;2024-02-21T02:26:49;96197.97;;;3.66;100.00
79075;BME280;68476;42.710;23.388;2024-02-21T02:29:15;96199.34;;;3.70;100.00
79075;BME280;68476;42.710;23.388;2024-02-21T02:31:41;96197.97;;;3.66;100.00
79075;BME280;68476;42.710;23.388;2024-02-21T02:34:07;96200.34;;;3.61;100.00
79075;BME280;68476;42.710;23.388;2024-02-21T02:36:33;96201.03;;;3.54;100.00
79075;BME280;68476;42.710;23.388;2024-02-21T02:38:59;96197.00;;;3.50;100.00
79075;BME280;68476;42.710;23.388;2024-02-21T02:41:24;96196.31;;;3.48;100.00
79075;BME280;68476;42.710;23.388;2024-02-21T02:43:50;96196.16;;;3.50;100.00
79075;BME280;68476;42.710;23.388;2024-02-21T02:46:15;96201.72;;;3.48;100.00
79075;BME280;68476;42.710;23.388;2024-02-21T02:48:41;96205.25;;;3.49;100.00
79075;BME280;68476;42.710;23.388;2024-02-21T02:51:06;96196.81;;;3.52;100.00
79075;BME280;68476;42.710;23.388;2024-02-21T02:53:32;96205.41;;;3.55;100.00
79075;BME280;68476;42.710;23.388;2024-02-21T02:55:57;96206.09;;;3.58;100.00
79075;BME280;68476;42.710;23.388;2024-02-21T02:58:23;96206.94;;;3.58;100.00
79075;BME280;68476;42.710;23.388;2024-02-21T03:00:49;96205.75;;;3.61;100.00
79075;BME280;68476;42.710;23.388;2024-02-21T03:03:14;96207.59;;;3.60;100.00
79075;BME280;68476;42.710;23.388;2024-02-21T03:05:40;96206.06;;;3.66;100.00
79075;BME280;68476;42.710;23.388;2024-02-21T03:08:05;96196.28;;;3.65;100.00
79075;BME280;68476;42.710;23.388;2024-02-21T03:10:35;96201.03;;;3.63;100.00
79075;BME280;68476;42.710;23.388;2024-02-21T03:13:01;96203.72;;;3.63;100.00
79075;BME280;68476;42.710;23.388;2024-02-21T03:15:26;96208.44;;;3.61;100.00
79075;BME280;68476;42.710;23.388;2024-02-21T03:17:52;96213.50;;;3.55;100.00
79075;BME280;68476;42.710;23.388;2024-02-21T03:20:17;96213.50;;;3.55;100.00
79075;BME280;68476;42.710;23.388;2024-02-21T03:22:44;96213.00;;;3.52;100.00
79075;BME280;68476;42.710;23.388;2024-02-21T03:25:10;96214.19;;;3.49;100.00
79075;BME280;68476;42.710;23.388;2024-02-21T03:27:36;96215.38;;;3.47;100.00
79075;BME280;68476;42.710;23.388;2024-02-21T03:30:02;96219.53;;;3.41;100.00
79075;BME280;68476;42.710;23.388;2024-02-21T03:32:29;96218.91;;;3.39;100.00
79075;BME280;68476;42.710;23.388;2024-02-21T03:34:55;96219.53;;;3.41;100.00
79075;BME280;68476;42.710;23.388;2024-02-21T03:37:20;96226.81;;;3.41;100.00
79075;BME280;68476;42.710;23.388;2024-02-21T03:39:46;96228.50;;;3.42;100.00
79075;BME280;68476;42.710;23.388;2024-02-21T03:42:11;96233.69;;;3.43;100.00
79075;BME280;68476;42.710;23.388;2024-02-21T03:44:37;96233.19;;;3.31;100.00
79075;BME280;68476;42.710;23.388;2024-02-21T03:47:02;96226.97;;;3.31;100.00
79075;BME280;68476;42.710;23.388;2024-02-21T03:49:28;96234.88;;;3.41;100.00
79075;BME280;68476;42.710;23.388;2024-02-21T03:51:54;96233.19;;;3.48;100.00
79075;BME280;68476;42.710;23.388;2024-02-21T03:54:19;96228.66;;;3.48;100.00
79075;BME280;68476;42.710;23.388;2024-02-21T03:56:45;96231.03;;;3.51;100.00
79075;BME280;68476;42.710;23.388;2024-02-21T03:59:13;96231.84;;;3.52;100.00
79075;BME280;68476;42.710;23.388;2024-02-21T04:01:39;96229.00;;;3.45;100.00
79075;BME280;68476;42.710;23.388;2024-02-21T04:04:04;96227.63;;;3.41;100.00
79075;BME280;68476;42.710;23.388;2024-02-21T04:06:30;96232.00;;;3.42;100.00
79075;BME280;68476;42.710;23.388;2024-02-21T04:08:56;96226.16;;;3.47;100.00
79075;BME280;68476;42.710;23.388;2024-02-21T04:11:21;96224.09;;;3.49;100.00
79075;BME280;68476;42.710;23.388;2024-02-21T04:13:47;96223.28;;;3.48;100.00
79075;BME280;68476;42.710;23.388;2024-02-21T04:16:15;96230.34;;;3.49;100.00
79075;BME280;68476;42.710;23.388;2024-02-21T04:18:41;96224.97;;;3.49;100.00
79075;BME280;68476;42.710;23.388;2024-02-21T04:21:06;96222.41;;;3.48;100.00
79075;BME280;68476;42.710;23.388;2024-02-21T04:23:32;96229.00;;;3.45;100.00
79075;BME280;68476;42.710;23.388;2024-02-21T04:25:57;96228.66;;;3.48;100.00
79075;BME280;68476;42.710;23.388;2024-02-21T04:28:22;96225.78;;;3.50;100.00
79075;BME280;68476;42.710;23.388;2024-02-21T04:30:48;96231.03;;;3.51;100.00
79075;BME280;68476;42.710;23.388;2024-02-21T04:33:13;96229.50;;;3.49;100.00
79075;BME280;68476;42.710;23.388;2024-02-21T04:35:39;96226.47;;;3.44;100.00
79075;BME280;68476;42.710;23.388;2024-02-21T04:38:05;96227.50;;;3.34;100.00
79075;BME280;68476;42.710;23.388;2024-02-21T04:40:30;96235.41;;;3.28;100.00
79075;BME280;68476;42.710;23.388;2024-02-21T04:42:57;96227.97;;;3.21;100.00
79075;BME280;68476;42.710;23.388;2024-02-21T04:45:22;96230.97;;;3.18;100.00
79075;BME280;68476;42.710;23.388;2024-02-21T04:47:48;96233.03;;;3.16;100.00
79075;BME280;68476;42.710;23.388;2024-02-21T04:50:13;96236.38;;;3.10;100.00
79075;BME280;68476;42.710;23.388;2024-02-21T04:52:39;96229.59;;;2.98;100.00
79075;BME280;68476;42.710;23.388;2024-02-21T04:55:04;96233.28;;;2.80;100.00
79075;BME280;68476;42.710;23.388;2024-02-21T04:57:30;96231.91;;;2.76;100.00
79075;BME280;68476;42.710;23.388;2024-02-21T04:59:55;96238.47;;;2.73;100.00
79075;BME280;68476;42.710;23.388;2024-02-21T05:02:21;96250.69;;;2.59;100.00
79075;BME280;68476;42.710;23.388;2024-02-21T05:04:49;96244.66;;;2.66;100.00
79075;BME280;68476;42.710;23.388;2024-02-21T05:07:15;96241.81;;;2.67;100.00
79075;BME280;68476;42.710;23.388;2024-02-21T05:09:42;96241.16;;;2.73;100.00
79075;BME280;68476;42.710;23.388;2024-02-21T05:12:08;96245.38;;;2.76;100.00
79075;BME280;68476;42.710;23.388;2024-02-21T05:14:33;96247.06;;;2.77;100.00
79075;BME280;68476;42.710;23.388;2024-02-21T05:16:59;96253.13;;;2.79;100.00
79075;BME280;68476;42.710;23.388;2024-02-21T05:19:24;96249.56;;;2.78;100.00
79075;BME280;68476;42.710;23.388;2024-02-21T05:21:50;96257.63;;;2.70;100.00
79075;BME280;68476;42.710;23.388;2024-02-21T05:24:16;96254.66;;;2.82;100.00
79075;BME280;68476;42.710;23.388;2024-02-21T05:26:41;96249.25;;;2.73;100.00
79075;BME280;68476;42.710;23.388;2024-02-21T05:29:07;96255.50;;;2.82;100.00
79075;BME280;68476;42.710;23.388;2024-02-21T05:34:16;96253.28;;;2.77;100.00
79075;BME280;68476;42.710;23.388;2024-02-21T05:36:42;96246.06;;;2.78;100.00
79075;BME280;68476;42.710;23.388;2024-02-21T05:39:07;96252.81;;;2.82;100.00
79075;BME280;68476;42.710;23.388;2024-02-21T05:41:33;96246.41;;;2.83;100.00
79075;BME280;68476;42.710;23.388;2024-02-21T05:43:58;96254.00;;;2.88;100.00
79075;BME280;68476;42.710;23.388;2024-02-21T05:46:24;96252.81;;;2.82;100.00
79075;BME280;68476;42.710;23.388;2024-02-21T05:48:49;96251.13;;;2.81;100.00
79075;BME280;68476;42.710;23.388;2024-02-21T05:51:15;96246.34;;;2.67;100.00
79075;BME280;68476;42.710;23.388;2024-02-21T05:53:40;96253.09;;;2.71;100.00
79075;BME280;68476;42.710;23.388;2024-02-21T05:56:15;96262.22;;;2.78;100.00
79075;BME280;68476;42.710;23.388;2024-02-21T05:58:40;96266.94;;;2.84;100.00
79075;BME280;68476;42.710;23.388;2024-02-21T06:01:06;96275.69;;;2.86;100.00
79075;BME280;68476;42.710;23.388;2024-02-21T06:03:33;96271.66;;;2.82;100.00
79075;BME280;68476;42.710;23.388;2024-02-21T06:06:00;96261.53;;;2.84;100.00
79075;BME280;68476;42.710;23.388;2024-02-21T06:08:26;96268.47;;;2.95;100.00
79075;BME280;68476;42.710;23.388;2024-02-21T06:10:51;96277.44;;;3.12;100.00
79075;BME280;68476;42.710;23.388;2024-02-21T06:13:28;96287.22;;;3.21;100.00
79075;BME280;68476;42.710;23.388;2024-02-21T06:15:54;96281.03;;;3.37;100.00
79075;BME280;68476;42.710;23.388;2024-02-21T06:18:20;96286.25;;;3.47;100.00
79075;BME280;68476;42.710;23.388;2024-02-21T06:20:46;96285.75;;;3.60;100.00
79075;BME280;68476;42.710;23.388;2024-02-21T06:23:12;96282.75;;;3.80;100.00
79075;BME280;68476;42.710;23.388;2024-02-21T06:25:38;96279.53;;;3.84;100.00
79075;BME280;68476;42.710;23.388;2024-02-21T06:28:04;96286.59;;;3.94;100.00
79075;BME280;68476;42.710;23.388;2024-02-21T06:30:30;96292.16;;;4.00;100.00
79075;BME280;68476;42.710;23.388;2024-02-21T06:32:56;96290.81;;;4.13;100.00
79075;BME280;68476;42.710;23.388;2024-02-21T06:35:22;96294.84;;;4.17;100.00
79075;BME280;68476;42.710;23.388;2024-02-21T06:37:50;96299.75;;;4.05;100.00
79075;BME280;68476;42.710;23.388;2024-02-21T06:40:21;96302.94;;;4.00;100.00
79075;BME280;68476;42.710;23.388;2024-02-21T06:42:47;96300.44;;;3.99;100.00
79075;BME280;68476;42.710;23.388;2024-02-21T06:45:13;96309.81;;;4.36;100.00
79075;BME280;68476;42.710;23.388;2024-02-21T06:47:38;96304.44;;;4.84;100.00
79075;BME280;68476;42.710;23.388;2024-02-21T06:50:04;96305.38;;;5.08;100.00
79075;BME280;68476;42.710;23.388;2024-02-21T06:52:29;96312.41;;;5.17;100.00
79075;BME280;68476;42.710;23.388;2024-02-21T06:54:56;96309.69;;;5.17;100.00
79075;BME280;68476;42.710;23.388;2024-02-21T06:57:22;96312.13;;;5.35;100.00
79075;BME280;68476;42.710;23.388;2024-02-21T06:59:47;96310.03;;;5.22;100.00
79075;BME280;68476;42.710;23.388;2024-02-21T07:02:13;96310.41;;;5.11;100.00
79075;BME280;68476;42.710;23.388;2024-02-21T07:04:38;96314.28;;;5.08;100.00
79075;BME280;68476;42.710;23.388;2024-02-21T07:07:03;96304.91;;;5.28;100.00
79075;BME280;68476;42.710;23.388;2024-02-21T07:09:29;96307.34;;;5.46;100.00
79075;BME280;68476;42.710;23.388;2024-02-21T07:11:57;96308.78;;;5.80;100.00
79075;BME280;68476;42.710;23.388;2024-02-21T07:14:23;96311.97;;;5.60;100.00
79075;BME280;68476;42.710;23.388;2024-02-21T07:16:48;96303.44;;;5.71;100.00
79075;BME280;68476;42.710;23.388;2024-02-21T07:19:14;96311.75;;;5.70;100.00
79075;BME280;68476;42.710;23.388;2024-02-21T07:21:39;96311.22;;;5.75;100.00
79075;BME280;68476;42.710;23.388;2024-02-21T07:24:07;96308.81;;;6.03;100.00
79075;BME280;68476;42.710;23.388;2024-02-21T07:26:33;96312.75;;;5.92;100.00
79075;BME280;68476;42.710;23.388;2024-02-21T07:28:58;96319.59;;;5.80;100.00
79075;BME280;68476;42.710;23.388;2024-02-21T07:31:24;96319.50;;;5.96;100.00
79075;BME280;68476;42.710;23.388;2024-02-21T07:33:52;96315.19;;;6.10;100.00
79075;BME280;68476;42.710;23.388;2024-02-21T07:36:28;96312.88;;;6.22;100.00
79075;BME280;68476;42.710;23.388;2024-02-21T07:38:54;96314.66;;;6.30;100.00
79075;BME280;68476;42.710;23.388;2024-02-21T07:41:20;96314.97;;;6.50;100.00
79075;BME280;68476;42.710;23.388;2024-02-21T07:43:45;96321.72;;;6.84;100.00
79075;BME280;68476;42.710;23.388;2024-02-21T07:46:11;96310.69;;;6.56;100.00
79075;BME280;68476;42.710;23.388;2024-02-21T07:48:36;96311.13;;;6.44;100.00
79075;BME280;68476;42.710;23.388;2024-02-21T07:51:02;96311.78;;;6.46;100.00
79075;BME280;68476;42.710;23.388;2024-02-21T07:53:27;96308.94;;;6.10;100.00
79075;BME280;68476;42.710;23.388;2024-02-21T07:55:53;96308.19;;;6.16;100.00
79075;BME280;68476;42.710;23.388;2024-02-21T07:58:18;96310.19;;;6.37;100.00
79075;BME280;68476;42.710;23.388;2024-02-21T08:00:44;96301.06;;;6.38;100.00
79075;BME280;68476;42.710;23.388;2024-02-21T08:03:09;96297.88;;;6.35;100.00
79075;BME280;68476;42.710;23.388;2024-02-21T08:05:35;96297.34;;;6.01;100.00
79075;BME280;68476;42.710;23.388;2024-02-21T08:08:00;96295.91;;;6.28;100.00
79075;BME280;68476;42.710;23.388;2024-02-21T08:10:26;96296.09;;;6.42;100.00
79075;BME280;68476;42.710;23.388;2024-02-21T08:12:51;96298.56;;;6.52;100.00
79075;BME280;68476;42.710;23.388;2024-02-21T08:15:17;96304.25;;;6.57;100.00
79075;BME280;68476;42.710;23.388;2024-02-21T08:17:42;96308.97;;;6.40;100.00
79075;BME280;68476;42.710;23.388;2024-02-21T08:20:08;96306.56;;;6.45;100.00
79075;BME280;68476;42.710;23.388;2024-02-21T08:22:37;96301.16;;;6.75;100.00
79075;BME280;68476;42.710;23.388;2024-02-21T08:25:03;96304.25;;;7.02;100.00
79075;BME280;68476;42.710;23.388;2024-02-21T08:27:30;96298.50;;;7.27;100.00
79075;BME280;68476;42.710;23.388;2024-02-21T08:29:56;96292.47;;;7.46;100.00
79075;BME280;68476;42.710;23.388;2024-02-21T08:32:21;96293.25;;;7.62;100.00
79075;BME280;68476;42.710;23.388;2024-02-21T08:34:47;96295.38;;;7.45;100.00
79075;BME280;68476;42.710;23.388;2024-02-21T08:37:15;96299.38;;;7.49;100.00
79075;BME280;68476;42.710;23.388;2024-02-21T08:39:41;96299.47;;;7.77;100.00
79075;BME280;68476;42.710;23.388;2024-02-21T08:42:06;96301.00;;;7.65;100.00
79075;BME280;68476;42.710;23.388;2024-02-21T08:44:32;96304.84;;;7.34;100.00
79075;BME280;68476;42.710;23.388;2024-02-21T08:46:57;96292.88;;;7.86;100.00
79075;BME280;68476;42.710;23.388;2024-02-21T08:49:23;96286.97;;;7.39;100.00
79075;BME280;68476;42.710;23.388;2024-02-21T08:51:48;96304.59;;;7.14;100.00
79075;BME280;68476;42.710;23.388;2024-02-21T08:54:14;96296.13;;;7.38;100.00
79075;BME280;68476;42.710;23.388;2024-02-21T08:56:39;96296.22;;;7.45;100.00
79075;BME280;68476;42.710;23.388;2024-02-21T08:59:05;96295.34;;;7.81;100.00
79075;BME280;68476;42.710;23.388;2024-02-21T09:01:31;96297.97;;;7.16;100.00
79075;BME280;68476;42.710;23.388;2024-02-21T09:03:56;96289.84;;;7.16;100.00
79075;BME280;68476;42.710;23.388;2024-02-21T09:06:22;96293.38;;;7.53;100.00
79075;BME280;68476;42.710;23.388;2024-02-21T09:08:48;96297.75;;;7.54;100.00
79075;BME280;68476;42.710;23.388;2024-02-21T09:11:14;96297.88;;;7.46;100.00
79075;BME280;68476;42.710;23.388;2024-02-21T09:13:41;96292.69;;;7.30;100.00
79075;BME280;68476;42.710;23.388;2024-02-21T09:16:06;96296.97;;;7.39;100.00
79075;BME280;68476;42.710;23.388;2024-02-21T09:18:32;96301.59;;;7.23;100.00
79075;BME280;68476;42.710;23.388;2024-02-21T09:20:57;96296.28;;;7.15;100.00
79075;BME280;68476;42.710;23.388;2024-02-21T09:23:26;96291.59;;;7.61;100.00
79075;BME280;68476;42.710;23.388;2024-02-21T09:25:52;96295.13;;;7.24;100.00
79075;BME280;68476;42.710;23.388;2024-02-21T09:28:17;96295.63;;;7.71;100.00
79075;BME280;68476;42.710;23.388;2024-02-21T09:30:43;96287.63;;;7.85;100.00
79075;BME280;68476;42.710;23.388;2024-02-21T09:33:08;96282.66;;;7.89;100.00
79075;BME280;68476;42.710;23.388;2024-02-21T09:35:37;96288.34;;;7.94;100.00
79075;BME280;68476;42.710;23.388;2024-02-21T09:38:03;96290.31;;;7.42;100.00
79075;BME280;68476;42.710;23.388;2024-02-21T09:40:28;96293.34;;;7.32;100.00
79075;BME280;68476;42.710;23.388;2024-02-21T09:43:04;96286.28;;;7.16;100.00
79075;BME280;68476;42.710;23.388;2024-02-21T09:45:33;96290.13;;;7.43;100.00
79075;BME280;68476;42.710;23.388;2024-02-21T09:48:47;96293.91;;;7.85;100.00
79075;BME280;68476;42.710;23.388;2024-02-21T09:51:17;96295.22;;;8.11;100.00
79075;BME280;68476;42.710;23.388;2024-02-21T09:53:44;96298.59;;;8.20;100.00
79075;BME280;68476;42.710;23.388;2024-02-21T09:56:11;96290.16;;;8.08;100.00
79075;BME280;68476;42.710;23.388;2024-02-21T09:58:37;96284.53;;;7.88;100.00
79075;BME280;68476;42.710;23.388;2024-02-21T10:01:03;96287.69;;;8.13;77.48
79075;BME280;68476;42.710;23.388;2024-02-21T10:03:32;96284.47;;;7.81;75.21
79075;BME280;68476;42.710;23.388;2024-02-21T10:05:58;96275.44;;;7.96;74.25
79075;BME280;68476;42.710;23.388;2024-02-21T10:08:26;96285.06;;;8.84;71.88
79075;BME280;68476;42.710;23.388;2024-02-21T10:10:52;96277.00;;;8.62;71.56
79075;BME280;68476;42.710;23.388;2024-02-21T10:13:30;96273.72;;;8.16;72.62
79075;BME280;68476;42.710;23.388;2024-02-21T10:16:06;96268.28;;;8.45;71.20
79075;BME280;68476;42.710;23.388;2024-02-21T10:18:33;96267.94;;;8.48;70.57
79075;BME280;68476;42.710;23.388;2024-02-21T10:21:08;96269.22;;;8.94;69.51
79075;BME280;68476;42.710;23.388;2024-02-21T10:23:50;96262.31;;;9.40;67.36
79075;BME280;68476;42.710;23.388;2024-02-21T10:26:19;96265.25;;;9.38;68.53
79075;BME280;68476;42.710;23.388;2024-02-21T10:28:45;96253.78;;;9.50;67.86
79075;BME280;68476;42.710;23.388;2024-02-21T10:31:23;96249.78;;;9.52;66.94
79075;BME280;68476;42.710;23.388;2024-02-21T10:34:00;96241.69;;;10.26;64.38
79075;BME280;68476;42.710;23.388;2024-02-21T10:36:28;96224.53;;;10.39;63.97
79075;BME280;68476;42.710;23.388;2024-02-21T10:38:54;96223.66;;;10.52;64.18
79075;BME280;68476;42.710;23.388;2024-02-21T10:41:20;96215.16;;;11.39;61.79
79075;BME280;68476;42.710;23.388;2024-02-21T10:43:52;96197.84;;;13.16;57.33
79075;BME280;68476;42.710;23.388;2024-02-21T10:46:20;96195.81;;;14.03;52.30
79075;BME280;68476;42.710;23.388;2024-02-21T10:48:47;96191.38;;;13.60;52.90
79075;BME280;68476;42.710;23.388;2024-02-21T10:51:17;96184.78;;;12.44;56.76
79075;BME280;68476;42.710;23.388;2024-02-21T10:56:31;96163.78;;;17.65;43.00
79075;BME280;68476;42.710;23.388;2024-02-21T10:59:02;96165.59;;;16.14;45.37
79075;BME280;68476;42.710;23.388;2024-02-21T11:01:31;96170.94;;;14.76;48.62
79075;BME280;68476;42.710;23.388;2024-02-21T11:04:07;96159.34;;;14.26;46.28
79075;BME280;68476;42.710;23.388;2024-02-21T11:06:35;96163.88;;;12.31;50.49
79075;BME280;68476;42.710;23.388;2024-02-21T11:09:08;96158.81;;;12.90;50.59
79075;BME280;68476;42.710;23.388;2024-02-21T11:11:35;96141.69;;;15.97;45.42
79075;BME280;68476;42.710;23.388;2024-02-21T11:16:38;96131.94;;;18.07;37.55
79075;BME280;68476;42.710;23.388;2024-02-21T11:19:08;96145.28;;;15.98;39.79
79075;BME280;68476;42.710;23.388;2024-02-21T11:21:35;96141.34;;;15.94;41.91
79075;BME280;68476;42.710;23.388;2024-02-21T11:24:02;96137.97;;;18.41;35.69
79075;BME280;68476;42.710;23.388;2024-02-21T11:26:28;96127.53;;;16.62;37.84
79075;BME280;68476;42.710;23.388;2024-02-21T11:29:01;96148.00;;;14.58;41.76
79075;BME280;68476;42.710;23.388;2024-02-21T11:31:39;96117.66;;;20.00;32.45
79075;BME280;68476;42.710;23.388;2024-02-21T11:34:08;96119.53;;;20.77;30.88
79075;BME280;68476;42.710;23.388;2024-02-21T11:36:34;96111.34;;;19.16;32.55
79075;BME280;68476;42.710;23.388;2024-02-21T11:39:05;96123.88;;;16.96;34.27
79075;BME280;68476;42.710;23.388;2024-02-21T11:41:31;96115.97;;;15.57;37.40
79075;BME280;68476;42.710;23.388;2024-02-21T11:43:57;96128.09;;;13.37;42.54
79075;BME280;68476;42.710;23.388;2024-02-21T11:46:22;96120.41;;;13.16;43.69
79075;BME280;68476;42.710;23.388;2024-02-21T11:48:49;96121.75;;;11.95;47.45
79075;BME280;68476;42.710;23.388;2024-02-21T11:51:26;96115.81;;;11.47;48.86
79075;BME280;68476;42.710;23.388;2024-02-21T11:53:55;96110.44;;;10.63;51.98
79075;BME280;68476;42.710;23.388;2024-02-21T11:56:20;96120.44;;;9.77;54.99
79075;BME280;68476;42.710;23.388;2024-02-21T11:58:47;96119.38;;;9.84;55.29
79075;BME280;68476;42.710;23.388;2024-02-21T12:01:14;96118.97;;;10.01;55.00
79075;BME280;68476;42.710;23.388;2024-02-21T12:03:39;96116.66;;;9.71;55.66
79075;BME280;68476;42.710;23.388;2024-02-21T12:06:07;96124.00;;;9.57;57.36
79075;BME280;68476;42.710;23.388;2024-02-21T12:08:45;96129.03;;;9.47;57.38
79075;BME280;68476;42.710;23.388;2024-02-21T12:11:19;96122.69;;;9.06;57.94
79075;BME280;68476;42.710;23.388;2024-02-21T12:13:46;96124.78;;;9.10;58.91
79075;BME280;68476;42.710;23.388;2024-02-21T12:16:15;96118.97;;;9.20;57.99
79075;BME280;68476;42.710;23.388;2024-02-21T12:18:41;96115.34;;;8.93;58.70
79075;BME280;68476;42.710;23.388;2024-02-21T12:21:07;96115.53;;;8.85;58.39
79075;BME280;68476;42.710;23.388;2024-02-21T12:23:32;96110.97;;;8.92;57.17
79075;BME280;68476;42.710;23.388;2024-02-21T12:25:59;96106.78;;;9.03;57.97
79075;BME280;68476;42.710;23.388;2024-02-21T12:28:25;96104.25;;;8.88;58.72
79075;BME280;68476;42.710;23.388;2024-02-21T12:30:51;96099.84;;;8.87;58.79
79075;BME280;68476;42.710;23.388;2024-02-21T12:33:17;96108.25;;;9.12;58.36
79075;BME280;68476;42.710;23.388;2024-02-21T12:35:43;96098.22;;;8.99;58.46
79075;BME280;68476;42.710;23.388;2024-02-21T12:38:08;96095.25;;;8.94;58.38
79075;BME280;68476;42.710;23.388;2024-02-21T12:40:34;96091.28;;;8.90;58.43
79075;BME280;68476;42.710;23.388;2024-02-21T12:43:00;96092.34;;;8.89;58.92
79075;BME280;68476;42.710;23.388;2024-02-21T12:45:28;96098.00;;;9.07;58.84
79075;BME280;68476;42.710;23.388;2024-02-21T12:47:54;96096.94;;;8.95;60.66
79075;BME280;68476;42.710;23.388;2024-02-21T12:50:19;96098.91;;;8.53;65.27
79075;BME280;68476;42.710;23.388;2024-02-21T12:52:46;96112.50;;;8.53;66.83
79075;BME280;68476;42.710;23.388;2024-02-21T12:55:11;96113.28;;;8.46;67.21